Time;durP1;ratioP1;P1;durP2;ratioP2;P2;SDS_P1;SDS_P2;PMS_P1;PMS_P2;Temp;Humidity;BMP_temperature;BMP_pressure;BME280_temperature;BME280_humidity;BME280_pressure;Samples;Min_cycle;Max_cycle;Signal;HPM_P1;HPM_P2
2023/03/20 00:01:33;;;;;;;18.60;10.90;;;9.80;69.50;;;;;;5054403;28;20488;-73
2023/03/20 00:03:59;;;;;;;17.70;10.90;;;9.80;70.50;;;;;;5050834;28;20385;-73
2023/03/20 00:06:31;;;;;;;21.27;11.57;;;9.70;69.10;;;;;;5053869;28;20397;-73
2023/03/20 00:08:57;;;;;;;19.20;11.45;;;9.70;69.70;;;;;;5053833;28;20409;-74
2023/03/20 00:11:29;;;;;;;17.73;11.50;;;9.70;69.00;;;;;;5053676;28;20424;-72
2023/03/20 00:14:04;;;;;;;17.65;11.00;;;9.50;72.50;;;;;;5054257;28;20417;-72
2023/03/20 00:16:36;;;;;;;18.17;11.48;;;9.70;72.50;;;;;;5054093;28;20385;-72
2023/03/20 00:19:03;;;;;;;18.95;11.45;;;9.60;73.30;;;;;;5054424;28;20901;-74
2023/03/20 00:21:29;;;;;;;19.30;11.95;;;9.60;72.00;;;;;;5052305;28;20397;-73
2023/03/20 00:23:55;;;;;;;20.65;11.48;;;9.70;71.00;;;;;;5054015;28;20393;-73
2023/03/20 00:26:25;;;;;;;17.95;10.88;;;9.70;71.00;;;;;;5054253;28;20408;-71
2023/03/20 00:28:51;;;;;;;18.15;11.02;;;9.70;69.40;;;;;;5052377;28;20439;-73
2023/03/20 00:31:27;;;;;;;16.07;10.50;;;9.80;69.10;;;;;;5052902;28;20413;-74
2023/03/20 00:33:55;;;;;;;16.65;10.73;;;9.80;69.50;;;;;;5053430;28;20948;-72
2023/03/20 00:36:20;;;;;;;19.05;11.10;;;9.60;71.00;;;;;;5053091;28;20873;-74
2023/03/20 00:38:46;;;;;;;18.15;10.75;;;9.60;71.20;;;;;;5053343;28;20381;-72
2023/03/20 00:41:36;;;;;;;17.45;10.73;;;9.60;70.00;;;;;;5053049;28;20917;-73
2023/03/20 00:44:13;;;;;;;17.65;10.50;;;9.60;70.60;;;;;;5053275;28;20378;-73
2023/03/20 00:46:39;;;;;;;21.10;10.77;;;9.60;69.90;;;;;;5053279;28;20409;-73
2023/03/20 00:49:05;;;;;;;14.47;10.20;;;9.80;69.10;;;;;;5053227;28;20838;-72
2023/03/20 00:51:30;;;;;;;17.13;10.60;;;9.70;68.40;;;;;;5053206;28;20417;-73
2023/03/20 00:53:57;;;;;;;18.30;9.80;;;9.70;67.80;;;;;;5053175;28;20385;-73
2023/03/20 00:56:41;;;;;;;15.70;10.02;;;9.80;66.20;;;;;;5054235;28;20858;-73
2023/03/20 00:59:14;;;;;;;13.38;9.27;;;9.70;65.20;;;;;;5053092;28;20830;-73
2023/03/20 01:01:40;;;;;;;15.10;9.40;;;9.70;65.60;;;;;;5052905;28;20431;-73
2023/03/20 01:04:15;;;;;;;14.53;9.83;;;9.70;66.10;;;;;;5053320;28;20746;-73
2023/03/20 01:06:41;;;;;;;16.27;9.77;;;9.70;66.70;;;;;;5052837;28;20901;-74
2023/03/20 01:09:06;;;;;;;15.37;9.63;;;9.70;66.50;;;;;;5052835;28;20424;-72
2023/03/20 01:11:33;;;;;;;17.30;10.13;;;9.70;66.20;;;;;;5051837;28;20758;-72
2023/03/20 01:13:58;;;;;;;16.23;9.60;;;9.70;66.10;;;;;;5053138;28;20385;-73
2023/03/20 01:16:26;;;;;;;17.48;10.80;;;9.60;67.20;;;;;;5052537;28;20814;-73
2023/03/20 01:18:52;;;;;;;16.50;10.55;;;9.60;66.80;;;;;;5052469;28;20784;-73
2023/03/20 01:21:19;;;;;;;15.20;10.18;;;9.60;68.00;;;;;;5052456;28;20867;-73
2023/03/20 01:23:44;;;;;;;16.27;10.52;;;9.60;69.30;;;;;;5052705;28;20754;-73
2023/03/20 01:26:23;;;;;;;18.52;10.82;;;9.50;70.80;;;;;;5052889;28;20374;-72
2023/03/20 01:28:50;;;;;;;16.67;9.90;;;9.40;71.20;;;;;;5052712;28;20389;-74
2023/03/20 01:31:16;;;;;;;16.38;9.93;;;9.50;70.30;;;;;;5052583;28;20369;-73
2023/03/20 01:33:41;;;;;;;17.20;10.10;;;9.50;69.00;;;;;;5052699;28;20427;-72
2023/03/20 01:36:14;;;;;;;16.33;10.20;;;9.50;68.30;;;;;;5052339;28;20773;-72
2023/03/20 01:38:41;;;;;;;15.93;10.60;;;9.40;70.30;;;;;;5052120;28;20388;-73
2023/03/20 01:41:10;;;;;;;18.27;10.63;;;9.40;69.30;;;;;;5051597;28;20382;-74
2023/03/20 01:43:36;;;;;;;18.15;10.73;;;9.50;68.20;;;;;;5051919;28;20455;-70
2023/03/20 01:46:10;;;;;;;17.47;10.77;;;9.40;69.30;;;;;;5052564;28;20373;-72
2023/03/20 01:49:28;;;;;;;16.70;10.57;;;9.40;69.80;;;;;;5052034;28;20496;-73
2023/03/20 01:51:55;;;;;;;18.55;10.93;;;9.30;71.40;;;;;;5018607;28;20389;-72
2023/03/20 01:54:34;;;;;;;18.17;11.18;;;9.30;72.00;;;;;;5052118;28;20381;-72
2023/03/20 01:57:25;;;;;;;22.00;11.80;;;9.20;72.40;;;;;;5051778;28;20446;-71
2023/03/20 02:00:01;;;;;;;23.00;12.43;;;9.20;73.50;;;;;;5051260;28;20393;-72
2023/03/20 02:02:30;;;;;;;19.48;11.93;;;8.90;77.40;;;;;;5051318;28;20393;-72
2023/03/20 02:05:02;;;;;;;18.33;11.65;;;8.90;78.30;;;;;;5054335;28;20893;-73
2023/03/20 02:07:28;;;;;;;21.60;12.27;;;8.90;78.40;;;;;;5069236;28;20463;-71
2023/03/20 02:09:54;;;;;;;24.85;12.40;;;8.80;79.90;;;;;;5060468;28;20454;-71
2023/03/20 02:12:21;;;;;;;21.50;12.45;;;8.70;82.20;;;;;;5055646;28;20385;-72
2023/03/20 02:14:48;;;;;;;24.38;13.65;;;8.60;83.10;;;;;;5055189;28;20920;-72
2023/03/20 02:17:14;;;;;;;22.95;13.45;;;8.50;86.70;;;;;;5051675;28;20498;-71
2023/03/20 02:20:05;;;;;;;22.13;13.02;;;8.60;83.90;;;;;;5053287;28;20406;-74
2023/03/20 02:22:54;;;;;;;20.93;13.20;;;8.70;83.60;;;;;;5068567;28;20412;-75
2023/03/20 02:25:29;;;;;;;23.70;13.63;;;8.70;83.30;;;;;;5054970;28;20913;-74
2023/03/20 02:28:00;;;;;;;25.83;13.97;;;8.60;84.50;;;;;;5053151;28;20898;-73
2023/03/20 02:31:00;;;;;;;24.13;14.00;;;8.40;87.00;;;;;;5051208;28;20788;-72
2023/03/20 02:34:07;;;;;;;25.30;13.70;;;8.50;86.90;;;;;;5050713;28;20394;-74
2023/03/20 02:36:39;;;;;;;25.58;13.73;;;8.50;87.80;;;;;;5050815;28;20443;-74
2023/03/20 02:39:15;;;;;;;26.17;15.10;;;8.50;86.50;;;;;;5051323;28;20732;-74
2023/03/20 02:41:49;;;;;;;25.57;15.30;;;8.30;88.50;;;;;;5050587;28;20396;-74
2023/03/20 02:44:32;;;;;;;25.27;14.50;;;8.10;93.20;;;;;;5052116;28;20393;-73
2023/03/20 02:47:17;;;;;;;25.33;14.90;;;8.30;91.40;;;;;;5051067;28;20401;-73
2023/03/20 02:50:09;;;;;;;27.33;14.83;;;8.60;87.10;;;;;;5051161;28;20385;-74
2023/03/20 02:52:39;;;;;;;25.53;14.20;;;8.40;86.70;;;;;;5051019;28;20403;-74
2023/03/20 02:55:09;;;;;;;28.80;14.93;;;8.60;86.80;;;;;;5050845;28;20948;-73
2023/03/20 02:57:57;;;;;;;27.73;15.10;;;8.60;85.40;;;;;;5050865;28;20396;-73
2023/03/20 03:00:37;;;;;;;27.55;14.75;;;8.70;85.00;;;;;;5050898;28;20385;-73
2023/03/20 03:03:27;;;;;;;27.30;16.10;;;8.70;84.40;;;;;;5051369;28;20468;-73
2023/03/20 03:05:58;;;;;;;25.83;14.67;;;8.70;83.40;;;;;;5055938;28;20443;-74
2023/03/20 03:08:30;;;;;;;24.73;14.70;;;8.60;84.90;;;;;;5055920;28;20400;-74
2023/03/20 03:11:05;;;;;;;25.60;14.45;;;8.50;86.20;;;;;;5055445;28;20416;-73
2023/03/20 03:13:34;;;;;;;25.77;15.15;;;8.30;89.20;;;;;;5056188;28;20369;-73
2023/03/20 03:16:07;;;;;;;26.73;15.30;;;8.50;88.80;;;;;;5050544;28;20423;-73
2023/03/20 03:18:34;;;;;;;26.60;15.50;;;8.40;87.90;;;;;;5049920;28;20900;-73
2023/03/20 03:21:02;;;;;;;26.05;14.70;;;8.50;87.10;;;;;;5050318;28;20415;-73
2023/03/20 03:23:30;;;;;;;29.65;15.75;;;8.50;87.40;;;;;;5050396;28;20389;-74
2023/03/20 03:25:59;;;;;;;29.20;15.82;;;8.40;86.70;;;;;;5050732;28;20376;-74
2023/03/20 03:28:29;;;;;;;32.08;16.70;;;8.20;89.10;;;;;;5050250;28;20408;-74
2023/03/20 03:30:56;;;;;;;29.33;16.38;;;8.10;92.10;;;;;;5050451;28;20377;-74
2023/03/20 03:33:29;;;;;;;28.88;16.65;;;8.00;94.50;;;;;;5050801;28;20381;-73
2023/03/20 03:36:15;;;;;;;28.60;16.00;;;8.10;93.70;;;;;;5049358;28;20438;-72
2023/03/20 03:39:00;;;;;;;28.90;16.10;;;8.00;94.10;;;;;;5050288;28;20731;-74
2023/03/20 03:41:35;;;;;;;27.92;15.75;;;8.00;94.50;;;;;;5049631;28;20405;-73
2023/03/20 03:44:14;;;;;;;33.67;16.25;;;8.10;93.00;;;;;;5049353;28;20401;-73
2023/03/20 03:47:09;;;;;;;29.13;16.08;;;8.10;91.50;;;;;;5050489;28;20378;-73
2023/03/20 03:49:44;;;;;;;28.75;16.10;;;8.20;91.40;;;;;;5046889;28;20405;-74
2023/03/20 03:52:15;;;;;;;29.42;16.60;;;8.30;90.70;;;;;;5049919;28;20380;-72
2023/03/20 03:55:12;;;;;;;27.95;15.95;;;8.40;89.40;;;;;;5049959;28;20382;-73
2023/03/20 03:58:02;;;;;;;27.67;16.25;;;8.60;85.60;;;;;;5045475;28;20400;-73
2023/03/20 04:00:28;;;;;;;26.20;16.10;;;8.70;82.30;;;;;;5049915;28;20464;-72
2023/03/20 04:02:57;;;;;;;32.97;15.88;;;8.70;82.80;;;;;;5049598;28;20416;-72
2023/03/20 04:05:28;;;;;;;30.63;16.60;;;8.60;83.10;;;;;;5051221;28;20382;-71
2023/03/20 04:07:56;;;;;;;26.00;15.10;;;8.80;77.30;;;;;;5052804;28;20409;-71
2023/03/20 04:10:22;;;;;;;24.38;14.00;;;8.90;75.50;;;;;;5053477;28;20377;-73
2023/03/20 04:12:47;;;;;;;30.90;14.57;;;8.90;72.40;;;;;;5053613;28;20386;-73
2023/03/20 04:15:15;;;;;;;21.40;12.80;;;9.00;69.50;;;;;;5054000;28;20381;-73
2023/03/20 04:17:41;;;;;;;23.80;13.65;;;9.00;68.40;;;;;;5053797;28;20393;-73
2023/03/20 04:20:08;;;;;;;25.98;14.55;;;8.90;68.80;;;;;;5053787;28;20393;-73
2023/03/20 04:22:33;;;;;;;23.02;13.55;;;8.80;70.30;;;;;;5054075;28;20381;-72
2023/03/20 04:25:02;;;;;;;25.57;13.70;;;8.60;71.50;;;;;;5053864;28;20525;-73
2023/03/20 04:27:27;;;;;;;27.70;14.13;;;8.60;72.60;;;;;;5053589;28;20396;-73
2023/03/20 04:29:53;;;;;;;24.40;14.27;;;8.60;72.30;;;;;;5053141;28;20388;-73
2023/03/20 04:32:19;;;;;;;23.07;13.60;;;8.50;73.20;;;;;;5052953;28;20373;-73
2023/03/20 04:34:44;;;;;;;25.30;13.47;;;8.50;74.60;;;;;;5051761;28;20393;-72
2023/03/20 04:37:10;;;;;;;27.17;14.03;;;8.60;72.00;;;;;;5053171;28;20381;-73
2023/03/20 04:39:36;;;;;;;26.20;13.97;;;8.60;71.10;;;;;;5052897;28;20465;-73
2023/03/20 04:42:03;;;;;;;26.10;14.40;;;8.60;70.40;;;;;;5052989;28;20870;-73
2023/03/20 04:44:28;;;;;;;23.67;14.20;;;8.60;71.20;;;;;;5052965;28;20408;-72
2023/03/20 04:46:54;;;;;;;24.67;14.00;;;8.50;71.80;;;;;;5052807;28;20766;-73
2023/03/20 04:49:20;;;;;;;24.88;15.02;;;8.40;73.00;;;;;;5052693;28;20377;-73
2023/03/20 04:51:45;;;;;;;25.45;14.30;;;8.30;75.30;;;;;;5052661;28;20381;-73
2023/03/20 04:54:11;;;;;;;24.75;13.93;;;8.30;75.90;;;;;;5052784;28;20388;-72
2023/03/20 04:56:36;;;;;;;25.07;14.80;;;8.40;75.10;;;;;;5052782;28;20471;-73
2023/03/20 04:59:02;;;;;;;26.03;14.93;;;8.40;73.90;;;;;;5051191;28;20479;-73
2023/03/20 05:01:27;;;;;;;30.07;15.97;;;8.40;74.40;;;;;;5050604;28;20420;-72
2023/03/20 05:03:59;;;;;;;31.00;15.90;;;8.30;73.90;;;;;;5052337;28;20443;-73
2023/03/20 05:06:28;;;;;;;30.77;15.35;;;8.30;73.20;;;;;;5052292;28;20409;-73
2023/03/20 05:08:53;;;;;;;26.70;15.17;;;8.30;74.10;;;;;;5052446;28;20511;-73
2023/03/20 05:11:19;;;;;;;27.07;14.67;;;8.20;75.30;;;;;;5052321;28;20377;-74
2023/03/20 05:13:45;;;;;;;24.52;14.20;;;8.20;73.60;;;;;;5052687;28;20393;-73
2023/03/20 05:16:11;;;;;;;20.95;12.68;;;8.30;71.70;;;;;;5051867;28;20468;-74
2023/03/20 05:18:37;;;;;;;26.20;13.90;;;8.30;71.40;;;;;;5051691;28;20430;-73
2023/03/20 05:21:03;;;;;;;22.43;13.53;;;8.20;72.80;;;;;;5052222;28;20435;-74
2023/03/20 05:23:29;;;;;;;25.48;14.35;;;8.20;73.90;;;;;;5053004;28;20389;-73
2023/03/20 05:25:55;;;;;;;29.60;14.73;;;8.20;75.10;;;;;;5053006;28;20446;-74
2023/03/20 05:28:20;;;;;;;26.27;14.73;;;8.20;74.80;;;;;;5052266;28;20405;-74
2023/03/20 05:30:46;;;;;;;26.30;15.10;;;8.20;75.90;;;;;;5052683;28;20724;-73
2023/03/20 05:33:11;;;;;;;26.25;14.63;;;8.20;76.40;;;;;;5051970;28;20388;-74
2023/03/20 05:35:37;;;;;;;27.83;14.50;;;8.30;76.20;;;;;;5051176;28;20393;-74
2023/03/20 05:38:02;;;;;;;30.13;15.40;;;8.40;75.00;;;;;;5052262;28;20382;-74
2023/03/20 05:40:28;;;;;;;30.57;16.20;;;8.30;75.10;;;;;;5051881;28;20389;-74
2023/03/20 05:42:53;;;;;;;30.80;16.20;;;8.20;76.20;;;;;;5051667;28;20394;-74
2023/03/20 05:45:19;;;;;;;34.80;17.10;;;8.30;76.90;;;;;;5052235;28;20826;-72
2023/03/20 05:47:45;;;;;;;33.08;16.35;;;8.20;77.90;;;;;;5051887;28;20502;-72
2023/03/20 05:50:11;;;;;;;30.95;16.77;;;8.10;79.80;;;;;;5051957;28;20378;-72
2023/03/20 05:52:36;;;;;;;33.60;16.63;;;8.00;81.30;;;;;;5051305;28;20393;-72
2023/03/20 05:55:02;;;;;;;32.05;16.30;;;8.00;81.70;;;;;;5051395;28;20384;-73
2023/03/20 05:57:28;;;;;;;31.48;15.90;;;8.10;80.90;;;;;;5052608;28;20393;-75
2023/03/20 05:59:53;;;;;;;28.60;15.10;;;8.20;79.20;;;;;;5052331;28;20386;-74
2023/03/20 06:02:19;;;;;;;33.73;16.50;;;8.30;78.60;;;;;;5051542;28;20389;-73
2023/03/20 06:04:45;;;;;;;35.40;17.27;;;8.30;78.70;;;;;;5051742;28;20385;-72
2023/03/20 06:07:10;;;;;;;39.90;16.60;;;8.20;79.70;;;;;;5052019;28;20401;-75
2023/03/20 06:09:36;;;;;;;29.90;16.43;;;8.30;80.10;;;;;;5051826;28;20692;-75
2023/03/20 06:12:01;;;;;;;30.43;15.67;;;8.50;77.40;;;;;;5051437;28;20460;-73
2023/03/20 06:14:27;;;;;;;36.70;17.13;;;8.40;76.50;;;;;;5051916;28;20431;-75
2023/03/20 06:16:53;;;;;;;35.67;17.10;;;8.40;77.40;;;;;;5052283;28;20461;-74
2023/03/20 06:19:20;;;;;;;39.67;18.17;;;8.40;78.70;;;;;;5052458;28;20390;-72
2023/03/20 06:21:46;;;;;;;35.40;17.55;;;8.30;78.60;;;;;;5051656;28;20388;-73
2023/03/20 06:24:12;;;;;;;32.90;16.63;;;8.40;78.90;;;;;;5051559;28;20397;-72
2023/03/20 06:26:37;;;;;;;35.50;16.20;;;8.50;75.60;;;;;;5050981;28;20794;-73
2023/03/20 06:29:03;;;;;;;36.20;15.85;;;8.60;74.60;;;;;;5051024;28;20382;-71
2023/03/20 06:31:29;;;;;;;31.17;17.30;;;8.70;73.60;;;;;;5049416;28;20421;-71
2023/03/20 06:33:55;;;;;;;31.00;16.00;;;8.60;74.10;;;;;;5050998;28;20385;-73
2023/03/20 06:36:21;;;;;;;27.15;15.40;;;8.60;75.40;;;;;;5051451;28;20723;-73
2023/03/20 06:38:46;;;;;;;37.40;15.10;;;8.70;72.40;;;;;;5051027;28;20388;-72
2023/03/20 06:41:12;;;;;;;26.67;14.23;;;8.70;71.70;;;;;;5051128;28;20860;-72
2023/03/20 06:43:38;;;;;;;25.50;13.70;;;8.60;72.70;;;;;;5050676;28;20438;-72
2023/03/20 06:46:04;;;;;;;27.75;14.25;;;8.70;71.80;;;;;;5050586;28;20385;-74
2023/03/20 06:48:30;;;;;;;29.70;13.37;;;8.70;71.70;;;;;;5050923;28;20412;-72
2023/03/20 06:50:56;;;;;;;25.57;13.47;;;8.80;69.60;;;;;;5052396;28;20389;-72
2023/03/20 06:53:21;;;;;;;22.93;12.50;;;9.00;65.70;;;;;;5060111;28;20409;-73
2023/03/20 06:55:48;;;;;;;24.67;13.27;;;9.20;62.70;;;;;;5063200;28;20404;-71
2023/03/20 06:58:14;;;;;;;25.08;13.75;;;9.20;63.10;;;;;;5064162;28;20385;-73
2023/03/20 07:00:41;;;;;;;21.65;12.20;;;9.10;64.50;;;;;;5058413;28;20412;-71
2023/03/20 07:03:06;;;;;;;25.10;12.48;;;9.30;62.10;;;;;;5058407;28;20392;-72
2023/03/20 07:05:32;;;;;;;20.95;12.00;;;9.50;59.30;;;;;;5054196;28;20393;-73
2023/03/20 07:07:58;;;;;;;26.70;11.65;;;9.60;58.80;;;;;;5051183;28;20435;-73
2023/03/20 07:10:24;;;;;;;21.45;11.25;;;9.60;56.70;;;;;;5049312;28;20397;-72
2023/03/20 07:12:49;;;;;;;23.88;12.10;;;9.70;54.90;;;;;;5049743;28;20902;-72
2023/03/20 07:15:18;;;;;;;18.45;10.13;;;9.80;55.40;;;;;;5050555;28;20388;-73
2023/03/20 07:17:44;;;;;;;22.13;10.20;;;9.80;51.30;;;;;;5050766;28;20394;-73
2023/03/20 07:20:11;;;;;;;18.20;9.20;;;9.90;51.20;;;;;;5051659;28;20462;-72
2023/03/20 07:22:38;;;;;;;13.30;7.40;;;9.80;51.50;;;;;;5050534;28;20889;-74
2023/03/20 07:25:05;;;;;;;17.90;7.97;;;9.90;48.10;;;;;;5050462;28;20389;-74
2023/03/20 07:27:30;;;;;;;12.57;7.20;;;9.90;47.50;;;;;;5050081;28;20402;-72
2023/03/20 07:29:56;;;;;;;19.90;8.95;;;9.80;47.70;;;;;;5050316;28;20388;-74
2023/03/20 07:32:21;;;;;;;14.57;8.10;;;9.80;49.60;;;;;;5049593;28;20489;-73
2023/03/20 07:34:48;;;;;;;19.73;8.60;;;9.90;47.00;;;;;;5048715;28;20393;-73
2023/03/20 07:37:14;;;;;;;19.95;8.85;;;9.90;47.50;;;;;;5050230;28;20481;-72
2023/03/20 07:39:40;;;;;;;12.55;6.90;;;10.00;45.30;;;;;;5050421;28;20435;-72
2023/03/20 07:42:05;;;;;;;17.57;8.73;;;10.00;44.80;;;;;;5053724;28;20392;-71
2023/03/20 07:44:31;;;;;;;18.10;8.50;;;9.90;45.50;;;;;;5053911;28;20495;-71
2023/03/20 07:46:56;;;;;;;19.03;9.30;;;10.00;46.10;;;;;;5054024;28;20413;-71
2023/03/20 07:49:22;;;;;;;21.63;10.32;;;10.10;45.50;;;;;;5053718;28;20389;-72
2023/03/20 07:51:53;;;;;;;23.73;11.05;;;10.20;44.00;;;;;;5053986;28;20948;-73
2023/03/20 07:54:19;;;;;;;22.95;11.50;;;10.30;43.70;;;;;;5054145;28;20377;-72
2023/03/20 07:56:46;;;;;;;29.38;13.45;;;10.30;44.40;;;;;;5054049;28;20499;-73
2023/03/20 07:59:12;;;;;;;21.27;10.80;;;10.20;46.30;;;;;;5053818;28;20385;-72
2023/03/20 08:01:38;;;;;;;21.70;11.20;;;10.40;44.80;;;;;;5053952;28;20381;-72
2023/03/20 08:04:04;;;;;;;26.50;11.20;;;10.40;44.50;;;;;;5055295;28;20842;-72
2023/03/20 08:06:30;;;;;;;24.50;12.45;;;10.50;41.60;;;;;;5054399;28;20381;-72
2023/03/20 08:08:55;;;;;;;28.10;12.30;;;10.40;43.10;;;;;;5053714;28;20405;-74
2023/03/20 08:11:21;;;;;;;26.23;12.80;;;10.50;42.10;;;;;;5051851;28;20448;-72
2023/03/20 08:13:46;;;;;;;23.85;11.40;;;10.50;42.10;;;;;;5053143;28;20504;-71
2023/03/20 08:16:12;;;;;;;22.90;11.23;;;10.70;39.90;;;;;;5053938;28;20719;-72
2023/03/20 08:18:38;;;;;;;26.70;12.10;;;10.70;39.50;;;;;;5053339;28;20860;-72
2023/03/20 08:21:04;;;;;;;21.85;11.20;;;10.50;41.70;;;;;;5053388;28;20393;-73
2023/03/20 08:23:29;;;;;;;20.27;11.40;;;10.60;39.70;;;;;;5053319;28;20392;-74
2023/03/20 08:25:55;;;;;;;20.30;10.70;;;10.60;38.90;;;;;;5053810;28;20390;-73
2023/03/20 08:28:22;;;;;;;24.33;10.65;;;10.60;38.70;;;;;;5054334;28;20401;-73
2023/03/20 08:30:47;;;;;;;20.92;10.77;;;10.80;38.10;;;;;;5054443;28;20385;-71
2023/03/20 08:33:15;;;;;;;22.27;10.10;;;10.90;38.30;;;;;;5054068;28;20423;-74
2023/03/20 08:35:42;;;;;;;21.85;10.40;;;11.20;36.00;;;;;;5054215;28;20385;-71
2023/03/20 08:38:12;;;;;;;17.83;10.70;;;11.30;36.40;;;;;;5053138;28;20389;-72
2023/03/20 08:40:42;;;;;;;19.48;10.20;;;11.40;35.20;;;;;;5053428;28;20732;-73
2023/03/20 08:43:08;;;;;;;19.48;9.93;;;11.70;34.60;;;;;;5053019;28;20411;-72
2023/03/20 08:45:34;;;;;;;17.33;9.80;;;11.70;31.70;;;;;;5053406;28;20381;-73
2023/03/20 08:47:59;;;;;;;22.48;10.00;;;11.70;31.70;;;;;;5053922;28;20608;-72
2023/03/20 08:50:25;;;;;;;17.80;9.60;;;11.50;33.00;;;;;;5054266;28;20389;-73
2023/03/20 08:52:51;;;;;;;16.73;9.50;;;11.60;31.20;;;;;;5054518;28;20373;-72
2023/03/20 08:55:17;;;;;;;18.63;9.90;;;11.60;31.70;;;;;;5054960;28;20385;-73
2023/03/20 08:57:42;;;;;;;19.23;9.93;;;11.70;31.60;;;;;;5055798;28;20377;-72
2023/03/20 09:00:11;;;;;;;20.45;9.65;;;11.50;32.00;;;;;;5058520;28;20511;-73
2023/03/20 09:02:37;;;;;;;18.35;9.80;;;11.50;32.60;;;;;;5060470;28;20386;-73
2023/03/20 09:05:03;;;;;;;20.08;9.02;;;11.70;32.20;;;;;;5060672;28;20420;-74
2023/03/20 09:07:29;;;;;;;18.98;9.25;;;11.70;30.50;;;;;;5061248;28;20401;-72
2023/03/20 09:09:54;;;;;;;17.48;8.05;;;11.40;33.10;;;;;;5060539;28;20385;-74
2023/03/20 09:12:20;;;;;;;17.90;8.55;;;11.50;30.40;;;;;;5057178;28;20393;-73
2023/03/20 09:14:46;;;;;;;16.40;7.80;;;11.50;31.00;;;;;;5058793;28;20432;-72
2023/03/20 09:17:11;;;;;;;13.50;6.57;;;11.60;30.60;;;;;;5059995;28;20418;-73
2023/03/20 09:19:38;;;;;;;13.60;7.47;;;11.70;29.40;;;;;;5058075;28;20574;-74
2023/03/20 09:22:04;;;;;;;18.65;6.70;;;11.60;29.20;;;;;;5056939;28;20389;-74
2023/03/20 09:24:31;;;;;;;17.55;6.95;;;11.60;29.40;;;;;;5055877;28;20443;-72
2023/03/20 09:26:57;;;;;;;13.75;6.47;;;11.40;29.50;;;;;;5056291;28;20469;-73
2023/03/20 09:29:23;;;;;;;13.50;6.30;;;11.60;28.80;;;;;;5057185;28;20444;-73
2023/03/20 09:31:49;;;;;;;10.50;6.18;;;11.60;29.10;;;;;;5054052;28;20386;-72
2023/03/20 09:34:14;;;;;;;17.75;6.53;;;11.60;28.20;;;;;;5053058;28;20427;-71
2023/03/20 09:36:40;;;;;;;12.83;6.40;;;11.50;28.40;;;;;;5052870;28;20902;-72
2023/03/20 09:39:05;;;;;;;16.30;5.67;;;11.50;29.10;;;;;;5052745;28;20753;-72
2023/03/20 09:41:35;;;;;;;12.07;4.80;;;11.90;26.00;;;;;;5052747;28;20973;-72
2023/03/20 09:44:33;;;;;;;10.95;5.30;;;11.70;26.80;;;;;;5052482;28;20389;-73
2023/03/20 09:47:07;;;;;;;10.93;5.10;;;11.70;26.30;;;;;;5051814;28;20471;-72
2023/03/20 09:49:38;;;;;;;10.68;4.95;;;11.60;26.50;;;;;;5052235;28;20866;-71
2023/03/20 09:52:19;;;;;;;13.38;5.38;;;12.00;26.30;;;;;;5052831;28;20434;-72
2023/03/20 09:54:49;;;;;;;10.45;4.75;;;12.40;25.20;;;;;;5051754;28;20385;-74
2023/03/20 09:57:27;;;;;;;14.45;5.28;;;12.40;23.30;;;;;;5051768;28;20518;-72
2023/03/20 10:00:04;;;;;;;11.10;4.68;;;12.30;23.60;;;;;;5051882;28;20378;-72
2023/03/20 10:02:50;;;;;;;10.57;4.35;;;12.20;24.70;;;;;;5051143;28;20402;-74
2023/03/20 10:05:33;;;;;;;11.10;4.03;;;12.30;22.90;;;;;;5054125;28;20424;-73
2023/03/20 10:08:02;;;;;;;12.73;4.30;;;11.90;23.70;;;;;;5053241;28;20431;-74
2023/03/20 10:10:47;;;;;;;10.35;4.10;;;12.10;21.70;;;;;;5055185;28;20441;-73
2023/03/20 10:13:29;;;;;;;11.32;3.83;;;11.90;23.40;;;;;;5057623;28;20846;-73
2023/03/20 10:16:22;;;;;;;10.00;3.90;;;12.00;22.60;;;;;;5058166;28;20381;-71
2023/03/20 10:19:04;;;;;;;9.07;4.18;;;12.10;21.90;;;;;;5059517;28;20400;-73
2023/03/20 10:21:43;;;;;;;15.45;6.07;;;12.10;22.20;;;;;;5059083;28;20381;-73
2023/03/20 10:24:22;;;;;;;12.25;4.50;;;12.10;22.10;;;;;;5058440;28;20389;-73
2023/03/20 10:26:52;;;;;;;13.63;4.53;;;12.10;22.90;;;;;;5052873;28;20381;-73
2023/03/20 10:29:31;;;;;;;11.05;3.60;;;12.30;21.20;;;;;;5051327;28;20382;-72
2023/03/20 10:32:06;;;;;;;8.88;3.70;;;12.30;22.00;;;;;;5056435;28;20377;-72
2023/03/20 10:34:56;;;;;;;7.30;3.80;;;12.40;21.00;;;;;;5055339;28;20405;-72
2023/03/20 10:37:50;;;;;;;11.73;4.43;;;12.50;20.10;;;;;;5051707;28;20435;-73
2023/03/20 10:40:38;;;;;;;10.43;4.00;;;12.50;20.50;;;;;;5050552;28;20405;-73
2023/03/20 10:43:27;;;;;;;9.23;3.60;;;12.40;21.40;;;;;;5052494;28;20401;-74
2023/03/20 10:46:08;;;;;;;11.63;4.28;;;12.30;20.60;;;;;;5045518;28;20385;-73
2023/03/20 10:48:40;;;;;;;11.90;3.90;;;12.30;20.90;;;;;;5052143;28;20484;-72
2023/03/20 10:51:13;;;;;;;11.85;4.80;;;12.10;22.20;;;;;;5052766;28;20439;-72
2023/03/20 10:53:47;;;;;;;13.40;4.50;;;11.90;22.50;;;;;;5057022;28;20377;-73
2023/03/20 10:56:26;;;;;;;8.93;4.60;;;11.80;23.50;;;;;;5063456;28;20386;-73
2023/03/20 10:58:58;;;;;;;13.48;4.50;;;11.50;24.70;;;;;;5064410;28;20476;-72
2023/03/20 11:01:23;;;;;;;11.50;4.88;;;11.60;24.70;;;;;;5052700;28;20373;-72
2023/03/20 11:03:49;;;;;;;11.80;3.75;;;11.60;24.10;;;;;;5050670;28;20941;-72
2023/03/20 11:06:21;;;;;;;11.63;4.30;;;11.60;23.60;;;;;;5050328;28;20393;-72
2023/03/20 11:08:50;;;;;;;10.13;4.40;;;11.50;24.00;;;;;;5050535;28;20466;-71
2023/03/20 11:11:22;;;;;;;12.27;5.20;;;11.60;25.40;;;;;;5049098;28;20386;-73
2023/03/20 11:13:48;;;;;;;12.18;4.90;;;11.80;26.70;;;;;;5050910;28;20385;-72
2023/03/20 11:16:28;;;;;;;12.95;5.30;;;12.10;25.20;;;;;;5053801;28;20374;-73
2023/03/20 11:18:54;;;;;;;14.77;5.40;;;12.30;25.00;;;;;;5055416;28;20520;-72
2023/03/20 11:21:30;;;;;;;13.32;5.70;;;12.40;24.90;;;;;;5054418;28;20395;-72
2023/03/20 11:23:56;;;;;;;14.17;5.20;;;12.40;24.60;;;;;;5054622;28;20446;-73
2023/03/20 11:26:35;;;;;;;14.20;4.95;;;12.60;23.30;;;;;;5055382;28;20381;-74
2023/03/20 11:29:01;;;;;;;15.80;5.35;;;12.40;23.80;;;;;;5054384;28;20428;-73
2023/03/20 11:31:34;;;;;;;15.67;5.33;;;12.30;25.10;;;;;;5054502;28;20471;-73
2023/03/20 11:34:18;;;;;;;12.50;5.40;;;12.40;24.90;;;;;;5055332;28;20388;-74
2023/03/20 11:36:59;;;;;;;18.00;5.80;;;12.60;23.50;;;;;;5057745;28;20464;-74
2023/03/20 11:39:28;;;;;;;12.70;4.35;;;12.70;23.10;;;;;;5056976;28;20850;-74
2023/03/20 11:41:55;;;;;;;12.50;4.38;;;12.80;21.40;;;;;;5054551;28;20373;-74
2023/03/20 11:44:29;;;;;;;12.53;4.00;;;13.00;21.20;;;;;;5055506;28;20381;-73
2023/03/20 11:47:00;;;;;;;15.65;3.75;;;13.00;19.60;;;;;;5053861;28;20487;-72
2023/03/20 11:49:28;;;;;;;9.10;3.65;;;12.80;20.90;;;;;;5052531;28;20405;-73
2023/03/20 11:51:59;;;;;;;10.43;3.38;;;12.70;21.20;;;;;;5053711;28;20475;-72
2023/03/20 11:54:26;;;;;;;16.90;3.58;;;12.70;21.80;;;;;;5052438;28;20393;-72
2023/03/20 11:57:00;;;;;;;7.70;3.30;;;12.50;22.90;;;;;;5053816;28;20940;-72
2023/03/20 11:59:32;;;;;;;11.18;3.20;;;12.20;23.70;;;;;;5054075;28;20392;-73
2023/03/20 12:01:58;;;;;;;9.43;3.20;;;12.10;24.00;;;;;;5052488;28;20400;-72
2023/03/20 12:04:28;;;;;;;9.55;3.60;;;12.00;25.00;;;;;;5053746;28;20392;-73
2023/03/20 12:07:00;;;;;;;14.55;3.88;;;11.70;26.60;;;;;;5054407;28;20746;-73
2023/03/20 12:09:43;;;;;;;8.95;3.20;;;11.60;27.50;;;;;;5053706;28;20475;-73
2023/03/20 12:12:34;;;;;;;10.45;3.10;;;11.60;27.70;;;;;;5053144;28;20873;-73
2023/03/20 12:15:09;;;;;;;8.53;3.23;;;11.40;27.30;;;;;;5052500;28;20386;-73
2023/03/20 12:17:59;;;;;;;8.48;3.53;;;11.10;29.30;;;;;;5053455;28;20464;-71
2023/03/20 12:20:53;;;;;;;9.10;3.45;;;11.20;31.60;;;;;;5080030;22;20569;-75
2023/03/20 12:23:37;;;;;;;8.35;3.28;;;11.30;29.40;;;;;;5067071;28;20396;-75
2023/03/20 12:26:12;;;;;;;10.38;3.53;;;11.20;31.70;;;;;;5074219;28;20477;-75
2023/03/20 12:29:00;;;;;;;9.88;3.28;;;11.40;30.30;;;;;;5079269;28;20403;-75
2023/03/20 12:31:31;;;;;;;11.90;3.72;;;11.40;32.10;;;;;;5059121;28;20378;-75
2023/03/20 12:34:16;;;;;;;18.33;4.40;;;11.70;32.30;;;;;;5054748;28;20742;-75
2023/03/20 12:36:45;;;;;;;11.45;4.35;;;11.70;31.50;;;;;;5054632;28;20736;-75
2023/03/20 12:39:17;;;;;;;12.77;4.30;;;12.00;34.10;;;;;;5054293;28;20444;-73
2023/03/20 12:41:55;;;;;;;12.25;4.10;;;12.10;32.20;;;;;;5054657;28;20377;-73
2023/03/20 12:44:42;;;;;;;15.13;4.40;;;12.40;33.70;;;;;;5047304;28;20490;-73
2023/03/20 12:47:38;;;;;;;9.35;4.03;;;12.70;30.30;;;;;;5054110;28;20484;-74
2023/03/20 12:50:26;;;;;;;10.48;4.10;;;12.30;32.50;;;;;;5065453;28;20393;-73
2023/03/20 12:53:19;;;;;;;9.23;4.15;;;12.40;30.90;;;;;;5057293;28;20389;-73
2023/03/20 12:56:18;;;;;;;14.10;4.70;;;12.40;29.70;;;;;;5036791;28;20396;-73
2023/03/20 12:58:59;;;;;;;12.63;3.85;;;12.60;29.40;;;;;;5061735;28;20971;-73